createdAt,value
2022-09-02T00:01:37.926Z,50.30
2022-09-02T00:04:13.728Z,50.25
2022-09-02T00:06:42.566Z,50.50
2022-09-02T00:09:12.320Z,50.37
2022-09-02T00:11:40.830Z,50.56
2022-09-02T00:14:14.281Z,50.47
2022-09-02T00:16:42.528Z,50.46
2022-09-02T00:19:11.034Z,50.59
2022-09-02T00:21:37.893Z,50.38
2022-09-02T00:24:06.104Z,50.35
2022-09-02T00:26:32.864Z,50.56
2022-09-02T00:28:59.375Z,50.56
2022-09-02T00:31:28.972Z,50.82
2022-09-02T00:33:56.409Z,50.95
2022-09-02T00:36:22.923Z,50.97
2022-09-02T00:38:49.893Z,51.09
2022-09-02T00:41:18.630Z,50.96
2022-09-02T00:43:53.553Z,51.23
2022-09-02T00:46:24.904Z,51.39
2022-09-02T00:49:25.661Z,51.63
2022-09-02T00:52:12.893Z,51.72
2022-09-02T00:54:53.707Z,52.13
2022-09-02T00:57:24.996Z,52.32
2022-09-02T01:00:19.470Z,52.58
2022-09-02T01:02:59.076Z,52.50
2022-09-02T01:05:31.472Z,52.18
2022-09-02T01:07:59.563Z,52.66
2022-09-02T01:10:34.388Z,52.63
2022-09-02T01:13:24.707Z,52.96
2022-09-02T01:15:58.973Z,52.66
2022-09-02T01:18:29.900Z,52.63
2022-09-02T01:20:59.748Z,52.70
2022-09-02T01:23:31.202Z,52.44
2022-09-02T01:26:02.379Z,52.34
2022-09-02T01:28:28.887Z,52.33
2022-09-02T01:30:55.510Z,52.08
2022-09-02T01:33:25.431Z,52.00
2022-09-02T01:35:53.376Z,51.64
2022-09-02T01:38:24.545Z,51.70
2022-09-02T01:40:52.602Z,51.95
2022-09-02T01:43:24.864Z,51.96
2022-09-02T01:45:55.221Z,51.94
2022-09-02T01:48:22.086Z,52.20
2022-09-02T01:50:55.016Z,52.11
2022-09-02T01:53:21.708Z,52.01
2022-09-02T01:55:48.588Z,51.60
2022-09-02T01:58:15.418Z,51.33
2022-09-02T02:00:42.153Z,51.57
2022-09-02T02:03:09.228Z,51.59
2022-09-02T02:05:36.473Z,51.54
2022-09-02T02:08:04.451Z,51.47
2022-09-02T02:10:31.201Z,51.53
2022-09-02T02:12:57.842Z,51.41
2022-09-02T02:17:50.633Z,52.02
2022-09-02T02:20:19.850Z,51.49
2022-09-02T02:22:47.939Z,51.47
2022-09-02T02:25:15.863Z,51.55
2022-09-02T02:27:44.803Z,51.37
2022-09-02T02:30:15.166Z,51.36
2022-09-02T02:32:43.483Z,51.41
2022-09-02T02:35:11.335Z,51.75
2022-09-02T02:37:38.071Z,51.73
2022-09-02T02:40:07.199Z,51.68
2022-09-02T02:42:34.087Z,51.38
2022-09-02T02:45:00.838Z,51.89
2022-09-02T02:47:27.717Z,51.78
2022-09-02T02:49:54.379Z,51.49
2022-09-02T02:52:21.016Z,51.88
2022-09-02T02:54:47.574Z,52.33
2022-09-02T02:57:14.158Z,52.04
2022-09-02T02:59:40.687Z,52.37
2022-09-02T03:02:07.757Z,52.26
2022-09-02T03:04:34.821Z,52.44
2022-09-02T03:07:01.638Z,52.62
2022-09-02T03:09:28.291Z,52.57
2022-09-02T03:11:54.976Z,52.48
2022-09-02T03:14:21.522Z,52.67
2022-09-02T03:16:48.039Z,52.88
2022-09-02T03:19:14.538Z,53.23
2022-09-02T03:21:42.423Z,53.25
2022-09-02T03:24:11.752Z,53.07
2022-09-02T03:26:42.129Z,53.28
2022-09-02T03:29:08.834Z,53.15
2022-09-02T03:31:35.605Z,53.19
2022-09-02T03:34:03.507Z,52.87
2022-09-02T03:36:38.663Z,53.19
2022-09-02T03:39:09.977Z,53.28
2022-09-02T03:41:37.658Z,53.01
2022-09-02T03:44:05.375Z,53.44
2022-09-02T03:46:31.930Z,53.39
2022-09-02T03:48:58.598Z,53.34
2022-09-02T03:51:27.127Z,53.54
2022-09-02T03:53:54.600Z,53.92
2022-09-02T03:56:22.006Z,54.05
2022-09-02T03:58:51.511Z,54.24
2022-09-02T04:01:27.948Z,54.22
2022-09-02T04:03:57.408Z,54.19
2022-09-02T04:06:26.223Z,54.36
2022-09-02T04:08:59.415Z,54.41
2022-09-02T04:11:26.035Z,54.31
2022-09-02T04:13:53.974Z,54.87
2022-09-02T04:17:35.858Z,54.82
2022-09-02T04:21:10.867Z,55.63
2022-09-02T04:23:38.131Z,55.24
2022-09-02T04:26:13.748Z,55.01
2022-09-02T04:28:40.763Z,55.25
2022-09-02T04:31:11.424Z,54.59
2022-09-02T04:33:39.294Z,55.22
2022-09-02T04:36:09.611Z,55.46
2022-09-02T04:38:39.591Z,54.63
2022-09-02T04:41:09.975Z,54.97
2022-09-02T04:43:37.086Z,55.56
2022-09-02T04:46:06.774Z,55.21
2022-09-02T04:48:35.297Z,55.33
2022-09-02T04:51:12.232Z,55.01
2022-09-02T04:53:40.432Z,54.56
2022-09-02T04:56:11.237Z,54.56
2022-09-02T04:58:38.457Z,54.83
2022-09-02T05:01:18.611Z,54.59
2022-09-02T05:03:45.790Z,54.61
2022-09-02T05:06:19.170Z,54.20
2022-09-02T05:08:47.989Z,54.60
2022-09-02T05:11:20.359Z,55.04
2022-09-02T05:13:51.394Z,55.07
2022-09-02T05:16:21.931Z,55.02
2022-09-02T05:18:51.018Z,55.27
2022-09-02T05:21:18.557Z,55.23
2022-09-02T05:23:45.162Z,54.92
2022-09-02T05:26:13.266Z,54.66
2022-09-02T05:28:41.319Z,54.67
2022-09-02T05:31:13.299Z,54.17
2022-09-02T05:33:42.101Z,54.14
2022-09-02T05:36:16.740Z,53.91
2022-09-02T05:38:45.356Z,53.92
2022-09-02T05:41:19.665Z,53.95
2022-09-02T05:43:46.875Z,54.27
2022-09-02T05:46:17.877Z,54.25
2022-09-02T05:49:05.296Z,54.01
2022-09-02T05:51:41.770Z,54.35
2022-09-02T05:54:16.685Z,54.11
2022-09-02T05:56:47.606Z,54.34
2022-09-02T05:59:14.945Z,54.51
2022-09-02T06:01:42.849Z,54.31
2022-09-02T06:04:09.718Z,54.37
2022-09-02T06:06:38.782Z,53.90
2022-09-02T06:09:12.559Z,53.99
2022-09-02T06:11:44.560Z,53.62
2022-09-02T06:14:13.995Z,53.48
2022-09-02T06:16:42.772Z,53.54
2022-09-02T06:19:10.182Z,52.97
2022-09-02T06:21:38.939Z,52.64
2022-09-02T06:24:08.047Z,52.38
2022-09-02T06:26:34.781Z,52.66
2022-09-02T06:29:01.419Z,52.70
2022-09-02T06:31:27.973Z,52.57
2022-09-02T06:34:01.801Z,52.12
2022-09-02T06:36:30.910Z,51.67
2022-09-02T06:39:00.391Z,51.54
2022-09-02T06:41:32.043Z,51.25
2022-09-02T06:44:02.201Z,51.15
2022-09-02T06:46:40.656Z,50.80
2022-09-02T06:49:09.445Z,50.55
2022-09-02T06:51:40.927Z,50.85
2022-09-02T06:54:14.070Z,50.22
2022-09-02T06:56:46.007Z,50.16
2022-09-02T06:59:16.479Z,50.07
2022-09-02T07:01:44.454Z,49.59
2022-09-02T07:04:29.550Z,49.59
2022-09-02T07:06:56.462Z,49.64
2022-09-02T07:09:36.494Z,49.02
2022-09-02T07:12:05.872Z,48.98
2022-09-02T07:14:38.855Z,48.92
2022-09-02T07:17:06.927Z,48.86
2022-09-02T07:19:33.647Z,48.63
2022-09-02T07:22:00.140Z,48.07
2022-09-02T07:24:26.664Z,47.83
2022-09-02T07:26:55.271Z,47.59
2022-09-02T07:29:23.298Z,47.28
2022-09-02T07:31:50.188Z,47.10
2022-09-02T07:34:17.844Z,46.89
2022-09-02T07:36:45.941Z,47.11
2022-09-02T07:39:14.871Z,47.44
2022-09-02T07:41:44.841Z,47.25
2022-09-02T07:44:12.707Z,46.82
2022-09-02T07:46:39.920Z,46.80
2022-09-02T07:49:10.568Z,46.38
2022-09-02T07:51:41.211Z,46.33
2022-09-02T07:54:10.564Z,45.89
2022-09-02T07:56:37.314Z,46.00
2022-09-02T07:59:04.366Z,45.91
2022-09-02T08:01:32.202Z,46.01
2022-09-02T08:04:00.458Z,46.12
2022-09-02T08:06:34.462Z,45.69
2022-09-02T08:09:05.231Z,45.95
2022-09-02T08:11:33.230Z,45.70
2022-09-02T08:14:00.577Z,45.83
2022-09-02T08:16:27.188Z,45.67
2022-09-02T08:18:53.900Z,45.52
2022-09-02T08:21:20.468Z,45.15
2022-09-02T08:23:49.143Z,44.99
2022-09-02T08:26:16.140Z,44.46
2022-09-02T08:28:42.635Z,44.57
2022-09-02T08:31:10.690Z,44.71
2022-09-02T08:33:37.284Z,44.32
2022-09-02T08:36:11.020Z,44.07
2022-09-02T08:38:38.063Z,43.87
2022-09-02T08:41:39.131Z,44.01
2022-09-02T08:44:07.407Z,43.85
2022-09-02T08:46:35.946Z,43.20
2022-09-02T08:49:08.554Z,42.85
2022-09-02T08:51:53.285Z,43.11
2022-09-02T08:54:27.706Z,43.45
2022-09-02T08:56:56.495Z,42.99
2022-09-02T08:59:27.308Z,43.27
2022-09-02T09:02:35.498Z,43.24
2022-09-02T09:05:30.188Z,43.02
2022-09-02T09:08:14.800Z,43.05
2022-09-02T09:11:38.598Z,42.57
2022-09-02T09:14:41.993Z,41.82
2022-09-02T09:17:39.060Z,41.81
2022-09-02T09:20:23.179Z,42.02
2022-09-02T09:22:56.981Z,42.27
2022-09-02T09:25:33.508Z,41.95
2022-09-02T09:28:01.815Z,41.86
2022-09-02T09:30:29.566Z,41.67
2022-09-02T09:33:04.088Z,41.26
2022-09-02T09:35:50.596Z,40.86
2022-09-02T09:38:30.391Z,40.43
2022-09-02T09:41:15.379Z,39.99
2022-09-02T09:43:44.134Z,40.83
2022-09-02T09:46:32.089Z,41.29
2022-09-02T09:48:58.635Z,41.28
2022-09-02T09:51:25.700Z,41.01
2022-09-02T09:53:52.835Z,40.39
2022-09-02T09:56:29.287Z,40.48
2022-09-02T09:58:55.908Z,40.56
2022-09-02T10:01:35.671Z,40.00
2022-09-02T10:04:47.701Z,39.38
2022-09-02T10:07:14.695Z,39.84
2022-09-02T10:09:41.963Z,39.60
2022-09-02T10:12:12.496Z,39.37
2022-09-02T10:14:50.328Z,38.84
2022-09-02T10:17:50.727Z,37.71
2022-09-02T10:21:11.393Z,38.20
2022-09-02T10:24:01.214Z,37.97
2022-09-02T10:26:49.048Z,37.38
2022-09-02T10:29:57.230Z,35.49
2022-09-02T10:32:38.920Z,35.10
2022-09-02T10:35:13.747Z,35.79
2022-09-02T10:38:05.139Z,34.71
2022-09-02T10:40:50.654Z,34.27
2022-09-02T10:43:43.683Z,35.14
2022-09-02T10:46:17.273Z,35.82
2022-09-02T10:49:23.843Z,35.22
2022-09-02T10:52:30.238Z,34.21
2022-09-02T10:55:32.112Z,34.60
2022-09-02T10:58:26.707Z,34.23
2022-09-02T11:00:57.132Z,34.46
2022-09-02T11:03:41.804Z,34.21
2022-09-02T11:06:45.784Z,32.80
2022-09-02T11:09:37.112Z,33.57
2022-09-02T11:12:29.455Z,33.42
2022-09-02T11:15:32.695Z,32.89
2022-09-02T11:18:30.990Z,33.34
2022-09-02T11:21:26.183Z,33.63
2022-09-02T11:24:11.039Z,33.58
2022-09-02T11:27:08.676Z,33.48
2022-09-02T11:30:23.387Z,33.11
2022-09-02T11:33:04.274Z,33.05
2022-09-02T11:35:39.780Z,33.23
2022-09-02T11:38:15.670Z,33.31
2022-09-02T11:41:32.991Z,33.25
2022-09-02T11:43:58.752Z,33.08
2022-09-02T11:47:15.439Z,32.61
2022-09-02T11:50:10.934Z,32.63
2022-09-02T11:53:28.239Z,33.06
2022-09-02T11:56:21.978Z,33.35
2022-09-02T11:58:55.847Z,33.39
2022-09-02T12:01:43.686Z,33.14
2022-09-02T12:04:56.066Z,32.86
2022-09-02T12:07:07.923Z,32.79
2022-09-02T12:09:54.957Z,32.23
2022-09-02T12:12:36.459Z,32.46
2022-09-02T12:15:06.306Z,32.88
2022-09-02T12:17:44.209Z,32.36
2022-09-02T12:20:41.589Z,32.02
2022-09-02T12:23:49.419Z,31.70
2022-09-02T12:26:19.862Z,31.74
2022-09-02T12:28:48.844Z,31.96
2022-09-02T12:31:42.683Z,31.67
2022-09-02T12:34:46.826Z,31.95
2022-09-02T12:37:53.989Z,32.37
2022-09-02T12:40:32.163Z,32.26
2022-09-02T12:43:06.364Z,32.86
2022-09-02T12:45:41.076Z,32.93
2022-09-02T12:48:17.305Z,32.80
2022-09-02T12:50:43.828Z,33.06
2022-09-02T12:53:32.303Z,32.95
2022-09-02T12:56:08.721Z,32.72
2022-09-02T12:59:02.249Z,32.86
2022-09-02T13:01:41.581Z,32.48
2022-09-02T13:04:38.958Z,31.61
2022-09-02T13:08:02.558Z,32.04
2022-09-02T13:11:34.545Z,31.88
2022-09-02T13:14:47.643Z,32.10
2022-09-02T13:18:02.603Z,31.87
2022-09-02T13:20:56.110Z,31.44
2022-09-02T13:24:09.502Z,31.45
2022-09-02T13:27:02.284Z,31.27
2022-09-02T13:30:28.919Z,31.51
2022-09-02T13:33:05.799Z,31.59
2022-09-02T13:35:38.864Z,31.99
2022-09-02T13:38:05.767Z,32.01
2022-09-02T13:40:36.026Z,31.43
2022-09-02T13:43:20.043Z,31.87
2022-09-02T13:45:49.212Z,31.94
2022-09-02T13:48:20.662Z,31.84
2022-09-02T13:51:02.730Z,31.25
2022-09-02T13:53:45.872Z,31.41
2022-09-02T13:56:30.484Z,31.28
2022-09-02T13:58:57.045Z,30.99
2022-09-02T14:01:37.128Z,31.11
2022-09-02T14:04:11.378Z,31.33
2022-09-02T14:06:44.212Z,31.03
2022-09-02T14:09:26.584Z,30.85
2022-09-02T14:11:55.132Z,31.27
2022-09-02T14:14:25.109Z,30.98
2022-09-02T14:16:52.574Z,30.88
2022-09-02T14:19:21.765Z,30.93
2022-09-02T14:21:51.197Z,31.42
2022-09-02T14:24:25.239Z,31.08
2022-09-02T14:26:57.707Z,31.40
2022-09-02T14:29:28.270Z,30.94
2022-09-02T14:32:20.777Z,31.52
2022-09-02T14:34:49.919Z,31.36
2022-09-02T14:37:26.911Z,30.77
2022-09-02T14:40:09.297Z,31.19
2022-09-02T14:42:57.737Z,31.04
2022-09-02T14:45:32.236Z,31.27
2022-09-02T14:48:22.578Z,30.93
2022-09-02T14:51:01.705Z,30.98
2022-09-02T14:53:29.246Z,30.72
2022-09-02T14:55:56.925Z,31.16
2022-09-02T14:58:27.590Z,30.81
2022-09-02T15:01:02.309Z,30.67
2022-09-02T15:03:31.559Z,30.75
2022-09-02T15:05:58.256Z,30.78
2022-09-02T15:08:25.149Z,30.74
2022-09-02T15:10:54.653Z,30.54
2022-09-02T15:13:32.662Z,30.71
2022-09-02T15:15:59.657Z,30.40
2022-09-02T15:18:26.447Z,30.11
2022-09-02T15:20:54.081Z,30.24
2022-09-02T15:23:21.705Z,30.32
2022-09-02T15:25:48.272Z,30.77
2022-09-02T15:28:14.818Z,31.22
2022-09-02T15:30:41.381Z,31.40
2022-09-02T15:33:16.452Z,30.90
2022-09-02T15:35:47.237Z,30.57
2022-09-02T15:38:13.803Z,30.80
2022-09-02T15:40:40.348Z,30.85
2022-09-02T15:43:06.900Z,30.36
2022-09-02T15:45:35.102Z,30.19
2022-09-02T15:48:01.946Z,30.42
2022-09-02T15:50:32.253Z,30.17
2022-09-02T15:53:01.051Z,30.10
2022-09-02T15:55:29.404Z,30.51
2022-09-02T15:57:56.887Z,30.45
2022-09-02T16:00:24.270Z,30.42
2022-09-02T16:02:54.649Z,30.44
2022-09-02T16:05:21.313Z,30.48
2022-09-02T16:07:48.513Z,30.26
2022-09-02T16:10:15.244Z,30.44
2022-09-02T16:12:42.055Z,30.41
2022-09-02T16:15:09.147Z,30.37
2022-09-02T16:17:36.042Z,30.49
2022-09-02T16:20:04.440Z,30.36
2022-09-02T16:22:30.984Z,30.27
2022-09-02T16:24:57.559Z,30.30
2022-09-02T16:27:44.026Z,30.14
2022-09-02T16:30:11.360Z,30.05
2022-09-02T16:32:37.891Z,30.45
2022-09-02T16:35:04.814Z,30.41
2022-09-02T16:37:31.358Z,30.59
2022-09-02T16:39:57.974Z,30.60
2022-09-02T16:42:24.969Z,30.68
2022-09-02T16:44:51.877Z,30.82
2022-09-02T16:47:18.678Z,30.79
2022-09-02T16:49:46.219Z,30.30
2022-09-02T16:52:12.967Z,30.43
2022-09-02T16:54:41.114Z,30.44
2022-09-02T16:57:08.820Z,30.62
2022-09-02T16:59:35.342Z,30.51
2022-09-02T17:02:02.080Z,30.54
2022-09-02T17:04:29.578Z,30.55
2022-09-02T17:06:56.752Z,30.53
2022-09-02T17:09:23.324Z,30.70
2022-09-02T17:11:49.905Z,30.93
2022-09-02T17:14:21.520Z,30.96
2022-09-02T17:16:50.911Z,31.00
2022-09-02T17:19:22.903Z,31.14
2022-09-02T17:21:54.448Z,31.20
2022-09-02T17:24:25.477Z,31.30
2022-09-02T17:26:56.943Z,31.34
2022-09-02T17:29:50.613Z,31.52
2022-09-02T17:32:18.998Z,31.69
2022-09-02T17:34:46.398Z,31.90
2022-09-02T17:37:12.912Z,32.09
2022-09-02T17:39:39.473Z,32.23
2022-09-02T17:42:06.899Z,32.20
2022-09-02T17:44:38.673Z,32.61
2022-09-02T17:47:10.123Z,32.64
2022-09-02T17:49:41.163Z,32.83
2022-09-02T17:52:09.450Z,32.95
2022-09-02T17:54:39.439Z,33.17
2022-09-02T17:57:29.954Z,33.36
2022-09-02T18:00:16.775Z,33.57
2022-09-02T18:03:08.379Z,34.32
2022-09-02T18:06:19.463Z,34.38
2022-09-02T18:08:57.045Z,34.77
2022-09-02T18:11:24.490Z,35.02
2022-09-02T18:14:23.368Z,35.29
2022-09-02T18:17:23.209Z,35.40
2022-09-02T18:20:02.852Z,35.68
2022-09-02T18:23:10.663Z,35.84
2022-09-02T18:26:14.772Z,36.24
2022-09-02T18:29:05.837Z,36.46
2022-09-02T18:31:54.146Z,36.15
2022-09-02T18:34:46.698Z,36.49
2022-09-02T18:37:22.180Z,36.64
2022-09-02T18:40:08.246Z,37.15
2022-09-02T18:43:19.555Z,37.42
2022-09-02T18:45:58.663Z,37.56
2022-09-02T18:48:34.525Z,37.45
2022-09-02T18:51:13.843Z,37.69
2022-09-02T18:53:49.161Z,37.88
2022-09-02T18:56:21.917Z,37.98
2022-09-02T18:59:07.890Z,38.40
2022-09-02T19:01:46.065Z,38.43
2022-09-02T19:04:14.719Z,38.71
2022-09-02T19:06:41.669Z,38.87
2022-09-02T19:09:15.551Z,39.30
2022-09-02T19:11:42.195Z,39.07
2022-09-02T19:14:08.598Z,39.29
2022-09-02T19:16:38.781Z,39.35
2022-09-02T19:19:06.550Z,39.52
2022-09-02T19:21:44.763Z,40.10
2022-09-02T19:24:22.426Z,39.81
2022-09-02T19:26:52.484Z,40.20
2022-09-02T19:29:21.036Z,40.18
2022-09-02T19:31:54.350Z,40.57
2022-09-02T19:34:22.583Z,40.87
2022-09-02T19:36:52.548Z,41.01
2022-09-02T19:39:19.177Z,41.21
2022-09-02T19:41:47.591Z,41.28
2022-09-02T19:44:15.461Z,41.54
2022-09-02T19:47:30.693Z,42.03
2022-09-02T19:49:28.872Z,42.42
2022-09-02T19:51:56.687Z,42.41
2022-09-02T19:54:23.389Z,42.57
2022-09-02T19:56:50.017Z,42.85
2022-09-02T19:59:17.038Z,43.01
2022-09-02T20:01:43.593Z,42.94
2022-09-02T20:04:11.503Z,43.17
2022-09-02T20:06:38.310Z,43.26
2022-09-02T20:09:05.843Z,43.12
2022-09-02T20:11:34.159Z,43.34
2022-09-02T20:14:03.187Z,43.28
2022-09-02T20:16:29.994Z,42.78
2022-09-02T20:18:57.223Z,43.05
2022-09-02T20:21:31.112Z,43.16
2022-09-02T20:24:08.450Z,43.28
2022-09-02T20:26:49.701Z,43.62
2022-09-02T20:29:56.675Z,44.58
2022-09-02T20:32:39.671Z,43.93
2022-09-02T20:35:45.410Z,45.36
2022-09-02T20:38:51.992Z,45.50
2022-09-02T20:42:13.094Z,46.03
2022-09-02T20:45:10.727Z,46.20
2022-09-02T20:47:52.384Z,45.90
2022-09-02T20:50:41.688Z,46.44
2022-09-02T20:53:48.151Z,46.77
2022-09-02T20:56:52.115Z,46.57
2022-09-02T20:59:44.264Z,45.54
2022-09-02T21:02:16.660Z,45.38
2022-09-02T21:04:51.294Z,45.41
2022-09-02T21:07:32.618Z,45.34
2022-09-02T21:10:10.307Z,45.25
2022-09-02T21:13:02.175Z,46.11
2022-09-02T21:15:35.275Z,45.79
2022-09-02T21:18:42.841Z,46.48
2022-09-02T21:21:35.311Z,46.57
2022-09-02T21:24:16.054Z,45.96
2022-09-02T21:27:02.863Z,46.82
2022-09-02T21:29:46.239Z,46.90
2022-09-02T21:32:29.482Z,47.08
2022-09-02T21:35:08.668Z,47.11
2022-09-02T21:37:39.924Z,47.26
2022-09-02T21:40:13.033Z,47.28
2022-09-02T21:42:54.697Z,47.21
2022-09-02T21:45:47.717Z,47.31
2022-09-02T21:48:47.892Z,47.91
2022-09-02T21:51:31.781Z,47.32
2022-09-02T21:54:11.516Z,46.91
2022-09-02T21:57:12.263Z,47.38
2022-09-02T21:59:53.008Z,46.86
2022-09-02T22:03:00.063Z,47.43
2022-09-02T22:05:55.996Z,47.08
2022-09-02T22:08:48.270Z,47.30
2022-09-02T22:11:37.150Z,47.48
2022-09-02T22:14:14.894Z,47.52
2022-09-02T22:16:58.890Z,47.34
2022-09-02T22:19:32.385Z,47.47
2022-09-02T22:22:13.931Z,47.81
2022-09-02T22:24:40.903Z,47.62
2022-09-02T22:27:25.682Z,47.87
2022-09-02T22:30:17.418Z,48.08
2022-09-02T22:32:56.930Z,47.91
2022-09-02T22:35:52.139Z,47.86
2022-09-02T22:38:35.111Z,47.77
2022-09-02T22:41:45.415Z,48.25
2022-09-02T22:45:03.586Z,48.02
2022-09-02T22:47:52.763Z,47.76
2022-09-02T22:50:46.930Z,47.75
2022-09-02T22:53:13.501Z,47.26
2022-09-02T22:56:09.810Z,48.65
2022-09-02T22:59:03.015Z,48.24
2022-09-02T23:01:40.765Z,48.37
2022-09-02T23:04:38.703Z,49.78
2022-09-02T23:07:06.831Z,48.68
2022-09-02T23:09:38.648Z,48.73
2022-09-02T23:12:50.801Z,49.63
2022-09-02T23:15:36.705Z,49.50
2022-09-02T23:18:33.535Z,49.82
2022-09-02T23:21:19.411Z,48.87
2022-09-02T23:24:09.238Z,49.38
2022-09-02T23:26:58.005Z,49.54
2022-09-02T23:29:27.767Z,49.16
2022-09-02T23:32:43.206Z,50.06
2022-09-02T23:35:20.674Z,49.32
2022-09-02T23:38:12.550Z,49.42
2022-09-02T23:40:54.114Z,49.74
2022-09-02T23:43:20.843Z,49.54
2022-09-02T23:45:48.009Z,49.72
2022-09-02T23:48:56.342Z,49.80
2022-09-02T23:51:56.023Z,50.06
2022-09-02T23:55:06.654Z,50.61
2022-09-02T23:57:57.368Z,50.17
